createdAt,value
2022-09-26T00:06:36.112Z,0
2022-09-26T00:11:58.514Z,0
2022-09-26T00:17:21.141Z,0
2022-09-26T00:22:43.861Z,0
2022-09-26T00:28:07.429Z,0
2022-09-26T00:33:32.923Z,0
2022-09-26T00:38:55.512Z,0
2022-09-26T00:44:18.094Z,0
2022-09-26T00:49:40.533Z,0
2022-09-26T00:55:06.488Z,0
2022-09-26T01:00:29.313Z,0
2022-09-26T01:05:51.656Z,0
2022-09-26T01:11:17.617Z,0
2022-09-26T01:16:51.168Z,0
2022-09-26T01:22:14.270Z,0
2022-09-26T01:27:36.995Z,0
2022-09-26T01:32:59.466Z,0
2022-09-26T01:38:22.635Z,0
2022-09-26T01:43:46.453Z,0
2022-09-26T01:54:40.742Z,0
2022-09-26T02:00:03.502Z,0
2022-09-26T02:05:25.897Z,0
2022-09-26T02:10:48.341Z,0
2022-09-26T02:16:11.302Z,0
2022-09-26T02:21:34.384Z,0
2022-09-26T02:27:04.392Z,0
2022-09-26T02:32:27.157Z,0
2022-09-26T02:37:50.156Z,0
2022-09-26T02:43:13.527Z,0
2022-09-26T02:48:36.172Z,0
2022-09-26T02:53:58.586Z,0
2022-09-26T02:59:21.199Z,0
2022-09-26T03:04:45.336Z,0
2022-09-26T03:10:18.623Z,0
2022-09-26T03:15:40.836Z,0
2022-09-26T03:26:33.342Z,0
2022-09-26T03:31:59.504Z,0
2022-09-26T03:37:22.292Z,0
2022-09-26T03:42:47.733Z,0
2022-09-26T03:48:12.838Z,0
2022-09-26T03:53:35.340Z,0
2022-09-26T03:59:07.538Z,0
2022-09-26T04:04:31.265Z,0
2022-09-26T04:09:54.393Z,0
2022-09-26T04:15:17.692Z,0
2022-09-26T04:20:40.082Z,0
2022-09-26T04:26:02.586Z,0
2022-09-26T04:31:33.052Z,0
2022-09-26T04:36:56.083Z,0
2022-09-26T04:42:19.560Z,0
2022-09-26T04:47:41.996Z,0
2022-09-26T04:53:12.913Z,0
2022-09-26T04:58:48.198Z,0
2022-09-26T05:04:11.023Z,0
2022-09-26T05:09:36.559Z,0
2022-09-26T05:14:59.140Z,0
2022-09-26T05:25:47.057Z,14
2022-09-26T05:31:10.060Z,13.2
2022-09-26T05:36:32.722Z,14.7
2022-09-26T05:47:27.182Z,25.1
2022-09-26T05:59:30.964Z,71.2
2022-09-26T06:04:53.356Z,76.4
2022-09-26T06:10:15.995Z,88.4
2022-09-26T06:15:39.000Z,94.1
2022-09-26T06:21:01.699Z,95.5
2022-09-26T06:26:24.285Z,109.7
2022-09-26T06:37:14.763Z,119.6
2022-09-26T06:42:39.693Z,102
2022-09-26T06:48:02.146Z,84
2022-09-26T06:53:24.734Z,73.3
2022-09-26T06:58:47.011Z,67.4
2022-09-26T07:04:09.517Z,59.5
2022-09-26T07:09:34.700Z,68.7
2022-09-26T07:14:57.206Z,73.2
2022-09-26T07:20:19.679Z,83.7
2022-09-26T07:25:42.203Z,101.9
2022-09-26T07:31:04.814Z,147.9
2022-09-26T07:41:56.533Z,241.1
2022-09-26T07:47:21.608Z,246.7
2022-09-26T07:52:46.974Z,226.8
2022-09-26T07:58:30.205Z,239.3
2022-09-26T08:03:55.789Z,310.5
2022-09-26T08:09:18.436Z,359.5
2022-09-26T08:14:44.227Z,442.5
2022-09-26T08:20:07.083Z,416.4
2022-09-26T08:25:32.463Z,342.8
2022-09-26T08:30:57.530Z,348.9
2022-09-26T08:41:55.743Z,408
2022-09-26T08:47:18.142Z,331.7
2022-09-26T08:52:40.333Z,280.6
2022-09-26T08:58:05.313Z,331
2022-09-26T09:03:27.887Z,369.3
2022-09-26T09:08:53.606Z,228.9
2022-09-26T09:14:16.348Z,219.7
2022-09-26T09:19:48.079Z,319
2022-09-26T09:25:10.756Z,254.7
2022-09-26T09:30:33.326Z,232.7
2022-09-26T09:46:47.309Z,391.7
2022-09-26T09:52:12.911Z,368.1
2022-09-26T09:57:35.418Z,366.1
2022-09-26T10:02:58.262Z,377.5
2022-09-26T10:08:23.022Z,415.5
2022-09-26T10:13:47.430Z,524.4
2022-09-26T10:19:10.725Z,481.9
2022-09-26T10:24:32.981Z,518.1
2022-09-26T10:29:55.998Z,706.1
2022-09-26T10:35:20.207Z,912.9
2022-09-26T10:40:43.103Z,786.9
2022-09-26T10:46:13.772Z,997.2
2022-09-26T10:51:36.678Z,698.2
2022-09-26T10:56:58.251Z,566.3
2022-09-26T11:02:23.064Z,622.9
2022-09-26T11:07:46.677Z,709.2
2022-09-26T11:13:12.659Z,848.7
2022-09-26T11:18:35.893Z,1052.2
2022-09-26T11:29:21.277Z,659.1
2022-09-26T11:34:47.051Z,645.1
2022-09-26T11:40:18.664Z,656.2
2022-09-26T11:45:47.733Z,625.5
2022-09-26T11:51:13.840Z,502.9
2022-09-26T11:56:35.888Z,337.9
2022-09-26T12:01:57.800Z,193.5
2022-09-26T12:07:19.910Z,187.6
2022-09-26T12:17:55.589Z,483.2
2022-09-26T12:23:20.509Z,591.5
2022-09-26T12:28:43.828Z,731.6
2022-09-26T12:34:07.373Z,1095.3
2022-09-26T12:39:40.350Z,760.8
2022-09-26T12:45:02.733Z,666.3
2022-09-26T12:50:25.564Z,506.2
2022-09-26T12:55:48.676Z,520.6
2022-09-26T13:01:15.737Z,506.5
2022-09-26T13:12:02.295Z,634.4
2022-09-26T13:20:05.900Z,811.5
2022-09-26T13:25:30.121Z,577.1
2022-09-26T13:30:52.251Z,514.9
2022-09-26T13:36:14.560Z,403
2022-09-26T13:47:12.706Z,264.8
2022-09-26T13:52:34.675Z,238.8
2022-09-26T14:03:20.206Z,391.7
2022-09-26T14:08:43.955Z,507.7
2022-09-26T14:14:07.676Z,377.6
2022-09-26T14:19:30.069Z,253.7
2022-09-26T14:25:30.642Z,324
2022-09-26T14:30:53.682Z,407.3
2022-09-26T14:36:39.472Z,476.3
2022-09-26T14:42:02.424Z,475.5
2022-09-26T14:47:24.931Z,449.3
2022-09-26T14:52:47.167Z,274.3
2022-09-26T14:58:11.634Z,268.6
2022-09-26T15:03:34.351Z,281.8
2022-09-26T15:08:57.066Z,325.2
2022-09-26T15:14:19.843Z,259.3
2022-09-26T15:19:41.726Z,103
2022-09-26T15:25:04.261Z,130.4
2022-09-26T15:30:26.680Z,172.6
2022-09-26T15:36:00.021Z,197.5
2022-09-26T15:41:22.899Z,176.3
2022-09-26T15:46:46.196Z,193.1
2022-09-26T15:52:08.965Z,154.1
2022-09-26T15:57:31.201Z,133.3
2022-09-26T16:08:15.739Z,130.1
2022-09-26T16:13:38.367Z,115.4
2022-09-26T16:19:00.892Z,84.1
2022-09-26T16:24:23.074Z,55
2022-09-26T16:34:56.337Z,28.3
2022-09-26T16:40:19.008Z,36.2
2022-09-26T16:45:41.757Z,62.7
2022-09-26T16:51:04.231Z,71.7
2022-09-26T16:56:26.481Z,72.8
2022-09-26T17:01:49.261Z,69.8
2022-09-26T17:07:11.728Z,53
2022-09-26T17:12:43.159Z,34.2
2022-09-26T17:18:08.750Z,40
2022-09-26T17:23:42.355Z,35.3
2022-09-26T17:34:43.736Z,1
2022-09-26T17:40:15.210Z,0
2022-09-26T17:46:01.298Z,0
2022-09-26T17:51:27.278Z,0
2022-09-26T17:56:50.246Z,0
2022-09-26T18:07:38.786Z,0
2022-09-26T18:13:03.833Z,0
2022-09-26T18:18:26.426Z,0
2022-09-26T18:23:49.050Z,0
2022-09-26T18:29:11.532Z,0
2022-09-26T18:34:34.124Z,0
2022-09-26T18:40:04.210Z,0
2022-09-26T18:45:27.243Z,0
2022-09-26T18:50:52.465Z,0
2022-09-26T18:56:25.988Z,0
2022-09-26T19:01:49.134Z,0
2022-09-26T19:07:27.577Z,0
2022-09-26T19:12:53.104Z,0
2022-09-26T19:18:15.473Z,0
2022-09-26T19:23:37.806Z,0
2022-09-26T19:29:00.029Z,0
2022-09-26T19:34:32.657Z,0
2022-09-26T19:39:55.585Z,0
2022-09-26T19:45:18.935Z,0
2022-09-26T19:56:10.196Z,0
2022-09-26T20:01:33.832Z,0
2022-09-26T20:06:56.907Z,0
2022-09-26T20:12:19.692Z,0
2022-09-26T20:17:41.961Z,0
2022-09-26T20:23:06.394Z,0
2022-09-26T20:28:29.365Z,0
2022-09-26T20:33:51.570Z,0
2022-09-26T20:39:13.891Z,0
2022-09-26T20:44:39.918Z,0
2022-09-26T20:50:05.980Z,0
2022-09-26T20:55:28.394Z,0
2022-09-26T21:00:51.328Z,0
2022-09-26T21:06:14.181Z,0
2022-09-26T21:11:36.595Z,0
2022-09-26T21:16:59.436Z,0
2022-09-26T21:22:22.180Z,0
2022-09-26T21:27:44.490Z,0
2022-09-26T21:38:29.476Z,0
2022-09-26T21:43:54.917Z,0
2022-09-26T21:49:19.813Z,0
2022-09-26T21:54:42.108Z,0
2022-09-26T22:00:05.684Z,0
2022-09-26T22:05:31.324Z,0
2022-09-26T22:10:53.908Z,0
2022-09-26T22:16:16.339Z,0
2022-09-26T22:21:39.069Z,0
2022-09-26T22:27:04.524Z,0
2022-09-26T22:32:27.624Z,0
2022-09-26T22:37:50.142Z,0
2022-09-26T22:43:16.719Z,0
2022-09-26T22:48:39.371Z,0
2022-09-26T22:54:01.877Z,0
2022-09-26T22:59:24.274Z,0
2022-09-26T23:04:48.158Z,0
2022-09-26T23:10:13.545Z,0
2022-09-26T23:15:41.531Z,0
2022-09-26T23:26:35.307Z,0
2022-09-26T23:32:00.518Z,0
2022-09-26T23:42:47.673Z,0
2022-09-26T23:48:10.300Z,0
2022-09-26T23:53:32.713Z,0
2022-09-26T23:58:55.681Z,0
